Time;durP1;ratioP1;P1;durP2;ratioP2;P2;SDS_P1;SDS_P2;PMS_P1;PMS_P2;Temp;Humidity;BMP_temperature;BMP_pressure;BME280_temperature;BME280_humidity;BME280_pressure;Samples;Min_cycle;Max_cycle;Signal;HPM_P1;HPM_P2
2022/03/16 00:02:26;;;;;;;50.72;32.90;;;9.00;99.90;;;;;;5073053;28;20203;-67
2022/03/16 00:04:54;;;;;;;45.15;31.05;;;9.20;99.90;;;;;;5073121;28;20218;-67
2022/03/16 00:07:22;;;;;;;46.95;31.70;;;9.30;99.90;;;;;;5073482;28;20248;-68
2022/03/16 00:09:50;;;;;;;43.28;30.35;;;9.40;99.90;;;;;;5073207;28;20218;-67
2022/03/16 00:12:17;;;;;;;41.80;28.90;;;9.40;99.90;;;;;;5072700;28;20663;-67
2022/03/16 00:14:45;;;;;;;39.75;27.98;;;9.50;99.90;;;;;;5072819;28;20211;-67
2022/03/16 00:17:13;;;;;;;43.75;29.05;;;9.70;99.90;;;;;;5072900;28;20225;-68
2022/03/16 00:19:41;;;;;;;39.97;27.75;;;9.70;99.90;;;;;;5073086;28;20207;-66
2022/03/16 00:22:08;;;;;;;40.55;28.58;;;9.70;99.90;;;;;;5072991;28;20203;-66
2022/03/16 00:24:35;;;;;;;40.08;27.95;;;9.80;99.90;;;;;;5072485;28;20561;-66
2022/03/16 00:27:01;;;;;;;46.20;32.60;;;9.70;99.90;;;;;;5072805;28;20229;-66
2022/03/16 00:29:28;;;;;;;46.85;31.60;;;9.50;99.90;;;;;;5072576;28;20588;-68
2022/03/16 00:31:55;;;;;;;51.22;32.55;;;9.30;99.90;;;;;;5072535;28;20613;-67
2022/03/16 00:34:23;;;;;;;53.35;33.85;;;9.20;99.90;;;;;;5072782;28;20209;-67
2022/03/16 00:36:50;;;;;;;52.10;33.95;;;9.10;99.90;;;;;;5072952;28;20222;-67
2022/03/16 00:39:17;;;;;;;53.10;35.08;;;9.10;99.90;;;;;;5072790;28;20203;-67
2022/03/16 00:41:44;;;;;;;55.80;37.00;;;9.00;99.90;;;;;;5072836;28;20209;-67
2022/03/16 00:44:11;;;;;;;58.72;37.53;;;9.00;99.90;;;;;;5072414;28;20780;-66
2022/03/16 00:46:37;;;;;;;63.50;39.33;;;8.80;99.90;;;;;;5072556;28;20227;-68
2022/03/16 00:49:04;;;;;;;61.70;38.70;;;8.80;99.90;;;;;;5072768;28;20198;-68
2022/03/16 00:51:33;;;;;;;62.13;39.70;;;8.80;99.90;;;;;;5073092;28;20199;-67
2022/03/16 00:54:00;;;;;;;61.70;38.10;;;8.80;99.90;;;;;;5072701;28;20538;-67
2022/03/16 00:56:27;;;;;;;65.15;39.20;;;8.70;99.90;;;;;;5072607;28;20219;-67
2022/03/16 00:58:54;;;;;;;68.25;39.80;;;8.80;99.90;;;;;;5072687;28;20392;-67
2022/03/16 01:01:20;;;;;;;70.15;39.65;;;8.70;99.90;;;;;;5072819;28;20653;-68
2022/03/16 01:03:47;;;;;;;67.25;40.65;;;8.70;99.90;;;;;;5100122;28;20209;-67
2022/03/16 01:06:15;;;;;;;64.32;39.45;;;8.70;99.90;;;;;;5113420;28;20603;-67
2022/03/16 01:08:43;;;;;;;70.80;40.05;;;8.70;99.90;;;;;;5113108;28;20201;-67
2022/03/16 01:11:11;;;;;;;67.63;39.03;;;8.70;99.90;;;;;;5113446;28;20208;-67
2022/03/16 01:13:38;;;;;;;71.90;42.78;;;8.70;99.90;;;;;;5114114;28;20277;-67
2022/03/16 01:16:06;;;;;;;69.47;40.70;;;8.60;99.90;;;;;;5114441;28;20214;-67
2022/03/16 01:18:32;;;;;;;71.38;40.80;;;8.60;99.90;;;;;;5114121;28;20197;-67
2022/03/16 01:20:59;;;;;;;71.88;39.45;;;8.70;99.90;;;;;;5114132;28;20201;-67
2022/03/16 01:23:26;;;;;;;63.60;38.67;;;8.80;99.90;;;;;;5113941;28;20211;-67
2022/03/16 01:25:54;;;;;;;65.18;37.00;;;9.00;99.90;;;;;;5118289;28;20316;-66
2022/03/16 01:28:21;;;;;;;59.85;35.92;;;9.20;99.90;;;;;;5118199;28;20206;-67
2022/03/16 01:30:48;;;;;;;51.83;33.50;;;9.30;99.90;;;;;;5118261;28;20296;-67
2022/03/16 01:33:15;;;;;;;52.42;34.20;;;9.50;99.90;;;;;;5117870;28;20685;-67
2022/03/16 01:35:42;;;;;;;54.60;35.60;;;9.50;99.90;;;;;;5118209;27;20288;-67
2022/03/16 01:38:08;;;;;;;52.97;34.97;;;9.60;99.90;;;;;;5118199;28;20292;-67
2022/03/16 01:40:35;;;;;;;49.33;33.45;;;9.60;99.90;;;;;;5118129;28;20262;-67
2022/03/16 01:43:03;;;;;;;53.40;35.22;;;9.70;99.90;;;;;;5117633;28;20207;-66
2022/03/16 01:45:30;;;;;;;50.40;32.95;;;9.80;99.90;;;;;;5117900;28;20228;-67
2022/03/16 01:47:57;;;;;;;50.40;33.40;;;9.90;99.90;;;;;;5117968;28;20207;-67
2022/03/16 01:50:24;;;;;;;50.40;34.13;;;9.80;99.90;;;;;;5118330;28;20267;-67
2022/03/16 01:52:51;;;;;;;52.28;33.65;;;9.90;99.90;;;;;;5117862;28;20201;-67
2022/03/16 01:55:18;;;;;;;49.72;33.47;;;9.90;99.90;;;;;;5117852;28;20540;-67
2022/03/16 01:57:48;;;;;;;53.60;34.38;;;9.90;99.90;;;;;;5117549;28;20308;-67
2022/03/16 02:00:17;;;;;;;52.60;32.17;;;9.90;99.90;;;;;;5117724;28;20205;-67
2022/03/16 02:02:46;;;;;;;58.90;35.30;;;10.00;99.90;;;;;;5117504;28;20597;-67
2022/03/16 02:05:13;;;;;;;62.22;37.63;;;9.80;99.90;;;;;;5117493;28;20763;-67
2022/03/16 02:07:42;;;;;;;58.85;35.25;;;9.60;99.90;;;;;;5117848;28;20221;-67
2022/03/16 02:10:10;;;;;;;55.60;35.05;;;9.60;99.90;;;;;;5117917;28;20209;-67
2022/03/16 02:12:44;;;;;;;53.80;34.78;;;9.70;99.90;;;;;;5117231;28;20211;-67
2022/03/16 02:15:12;;;;;;;57.53;36.90;;;9.70;99.90;;;;;;5117134;28;20195;-67
2022/03/16 02:17:40;;;;;;;60.25;35.42;;;9.80;99.90;;;;;;5117355;28;20247;-67
2022/03/16 02:20:08;;;;;;;57.70;34.33;;;9.80;99.90;;;;;;5117242;28;20212;-67
2022/03/16 02:22:37;;;;;;;62.08;36.40;;;9.70;99.90;;;;;;5116996;28;20204;-67
2022/03/16 02:25:09;;;;;;;61.67;37.17;;;9.70;99.90;;;;;;5116981;28;20214;-67
2022/03/16 02:27:39;;;;;;;67.72;38.22;;;9.60;99.90;;;;;;5117093;28;20225;-68
2022/03/16 02:30:07;;;;;;;66.45;39.08;;;9.50;99.90;;;;;;5117399;28;20201;-67
2022/03/16 02:32:34;;;;;;;68.32;39.55;;;9.40;99.90;;;;;;5117273;28;20300;-67
2022/03/16 02:35:01;;;;;;;70.57;38.80;;;9.30;99.90;;;;;;5116330;28;20197;-67
2022/03/16 02:37:28;;;;;;;81.03;42.67;;;9.20;99.90;;;;;;5117083;28;20308;-67
2022/03/16 02:39:55;;;;;;;76.93;40.88;;;9.10;99.90;;;;;;5116729;28;20296;-67
2022/03/16 02:42:24;;;;;;;88.63;42.53;;;9.00;99.90;;;;;;5117004;28;20204;-67
2022/03/16 02:44:50;;;;;;;85.10;43.15;;;8.90;99.90;;;;;;5116714;28;20208;-67
2022/03/16 02:47:17;;;;;;;79.38;42.00;;;8.80;99.90;;;;;;5116976;28;20233;-67
2022/03/16 02:49:45;;;;;;;83.97;43.20;;;8.80;99.90;;;;;;5116865;28;20201;-67
2022/03/16 02:52:12;;;;;;;85.40;43.85;;;8.80;99.90;;;;;;5117242;28;20202;-67
2022/03/16 02:54:39;;;;;;;83.00;45.17;;;8.80;99.90;;;;;;5116465;28;20205;-67
2022/03/16 02:57:07;;;;;;;77.45;42.42;;;8.70;99.90;;;;;;5116679;28;20218;-67
2022/03/16 02:59:36;;;;;;;84.97;43.25;;;8.70;99.90;;;;;;5116682;28;20212;-67
2022/03/16 03:02:03;;;;;;;86.47;45.42;;;8.70;99.90;;;;;;5116621;28;20204;-67
2022/03/16 03:04:29;;;;;;;88.55;43.58;;;8.70;99.90;;;;;;5116320;28;20204;-67
2022/03/16 03:06:57;;;;;;;78.88;41.75;;;8.70;99.90;;;;;;5116490;27;20225;-67
2022/03/16 03:09:25;;;;;;;85.35;43.15;;;8.70;99.90;;;;;;5116633;28;20223;-67
2022/03/16 03:11:52;;;;;;;79.85;43.00;;;8.80;99.90;;;;;;5116407;28;20206;-67
2022/03/16 03:14:19;;;;;;;76.13;40.97;;;8.90;99.90;;;;;;5115925;28;20197;-67
2022/03/16 03:16:47;;;;;;;76.53;42.97;;;8.90;99.90;;;;;;5116172;28;20221;-67
2022/03/16 03:19:14;;;;;;;67.78;38.78;;;9.10;99.90;;;;;;5116401;28;20227;-67
2022/03/16 03:21:41;;;;;;;68.88;39.67;;;9.30;99.90;;;;;;5116008;28;20207;-67
2022/03/16 03:24:08;;;;;;;74.05;41.55;;;9.30;99.90;;;;;;5116080;28;20201;-67
2022/03/16 03:26:35;;;;;;;74.15;41.75;;;9.30;99.90;;;;;;5116150;28;20226;-67
2022/03/16 03:29:02;;;;;;;80.90;43.80;;;9.20;99.90;;;;;;5115694;28;20693;-67
2022/03/16 03:31:29;;;;;;;81.25;43.60;;;9.00;99.90;;;;;;5116120;28;20204;-67
2022/03/16 03:33:57;;;;;;;87.90;43.28;;;8.90;99.90;;;;;;5116038;28;20208;-67
2022/03/16 03:36:24;;;;;;;83.47;44.22;;;8.80;99.90;;;;;;5115798;28;20248;-66
2022/03/16 03:38:51;;;;;;;90.40;45.58;;;8.70;99.90;;;;;;5115979;28;20198;-67
2022/03/16 03:41:17;;;;;;;89.97;46.55;;;8.70;99.90;;;;;;5115793;27;20197;-67
2022/03/16 03:43:44;;;;;;;97.05;46.35;;;8.70;99.90;;;;;;5115441;28;20209;-67
2022/03/16 03:46:11;;;;;;;98.07;47.08;;;8.60;99.90;;;;;;5115163;28;20247;-67
2022/03/16 03:48:38;;;;;;;94.35;46.40;;;8.60;99.90;;;;;;5115390;28;20615;-67
2022/03/16 03:51:06;;;;;;;97.00;45.75;;;8.60;99.90;;;;;;5115597;28;20202;-67
2022/03/16 03:53:34;;;;;;;94.93;46.95;;;8.60;99.90;;;;;;5115552;28;20293;-67
2022/03/16 03:56:01;;;;;;;90.40;47.70;;;8.60;99.90;;;;;;5115554;28;20214;-67
2022/03/16 03:58:28;;;;;;;98.55;48.47;;;8.70;99.90;;;;;;5115498;28;20288;-67
2022/03/16 04:00:55;;;;;;;93.53;47.95;;;8.70;99.90;;;;;;5115545;28;20208;-67
2022/03/16 04:03:21;;;;;;;85.45;43.67;;;8.80;99.90;;;;;;5115197;28;20201;-67
2022/03/16 04:05:48;;;;;;;87.97;44.83;;;9.00;99.90;;;;;;5115280;28;20320;-67
2022/03/16 04:08:16;;;;;;;89.35;44.60;;;9.00;99.90;;;;;;5115385;28;20197;-67
2022/03/16 04:10:43;;;;;;;81.53;46.08;;;9.00;99.90;;;;;;5115503;28;20292;-67
2022/03/16 04:13:10;;;;;;;92.03;46.10;;;8.90;99.90;;;;;;5115163;28;20212;-67
2022/03/16 04:15:37;;;;;;;94.63;46.17;;;8.90;99.90;;;;;;5115120;28;20295;-66
2022/03/16 04:18:04;;;;;;;90.97;44.90;;;8.80;99.90;;;;;;5115207;27;20296;-67
2022/03/16 04:20:31;;;;;;;95.90;46.85;;;8.70;99.90;;;;;;5114840;28;20208;-67
2022/03/16 04:22:57;;;;;;;99.70;48.03;;;8.60;99.90;;;;;;5114935;28;20208;-66
2022/03/16 04:25:26;;;;;;;104.45;46.17;;;8.60;99.90;;;;;;5115208;28;20217;-67
2022/03/16 04:27:52;;;;;;;104.05;48.13;;;8.60;99.90;;;;;;5114777;28;20227;-67
2022/03/16 04:30:19;;;;;;;112.50;50.55;;;8.50;99.90;;;;;;5114795;28;20207;-67
2022/03/16 04:32:51;;;;;;;104.25;47.47;;;8.40;99.90;;;;;;5114924;27;20202;-67
2022/03/16 04:35:19;;;;;;;100.00;48.78;;;8.40;99.90;;;;;;5114751;28;20198;-67
2022/03/16 04:37:46;;;;;;;100.60;48.47;;;8.50;99.90;;;;;;5114789;28;20214;-66
2022/03/16 04:40:13;;;;;;;89.50;46.88;;;8.60;99.90;;;;;;5114483;28;20775;-66
2022/03/16 04:42:42;;;;;;;94.07;47.20;;;8.50;99.90;;;;;;5114495;28;20205;-67
2022/03/16 04:45:10;;;;;;;99.50;49.38;;;8.50;99.90;;;;;;5114651;28;20208;-67
2022/03/16 04:47:36;;;;;;;90.90;46.42;;;8.50;99.90;;;;;;5114660;28;20578;-67
2022/03/16 04:50:05;;;;;;;90.72;47.38;;;8.50;99.90;;;;;;5114648;28;20208;-66
2022/03/16 04:52:31;;;;;;;96.35;48.45;;;8.50;99.90;;;;;;5114914;28;20204;-67
2022/03/16 04:54:58;;;;;;;100.03;48.88;;;8.50;99.90;;;;;;5114468;28;20250;-67
2022/03/16 04:57:25;;;;;;;106.53;48.10;;;8.50;99.90;;;;;;5114420;28;20224;-66
2022/03/16 04:59:53;;;;;;;103.45;48.30;;;8.40;99.90;;;;;;5114451;28;20218;-67
2022/03/16 05:02:20;;;;;;;97.40;49.08;;;8.40;99.90;;;;;;5114350;28;20296;-67
2022/03/16 05:04:47;;;;;;;110.53;50.20;;;8.50;99.90;;;;;;5113914;28;20205;-67
2022/03/16 05:07:14;;;;;;;110.60;50.08;;;8.50;99.90;;;;;;5114441;28;20225;-67
2022/03/16 05:09:41;;;;;;;100.38;48.80;;;8.50;99.90;;;;;;5114521;28;20240;-67
2022/03/16 05:12:09;;;;;;;99.75;48.30;;;8.60;99.90;;;;;;5114388;28;20296;-67
2022/03/16 05:14:36;;;;;;;101.78;49.22;;;8.70;99.90;;;;;;5114294;28;20205;-67
2022/03/16 05:17:05;;;;;;;109.68;49.08;;;8.70;99.90;;;;;;5114316;28;20213;-66
2022/03/16 05:19:32;;;;;;;103.95;50.08;;;8.60;99.90;;;;;;5114340;28;20237;-67
2022/03/16 05:21:58;;;;;;;104.00;48.70;;;8.60;99.90;;;;;;5114280;28;20202;-67
2022/03/16 05:24:26;;;;;;;108.63;49.72;;;8.50;99.90;;;;;;5114009;28;20203;-67
2022/03/16 05:26:53;;;;;;;116.93;52.50;;;8.50;99.90;;;;;;5114095;28;20647;-66
2022/03/16 05:29:20;;;;;;;101.03;49.42;;;8.50;99.90;;;;;;5113752;28;20298;-66
2022/03/16 05:31:47;;;;;;;105.63;51.00;;;8.50;99.90;;;;;;5114123;28;20207;-67
2022/03/16 05:34:15;;;;;;;103.22;51.95;;;8.50;99.90;;;;;;5114484;28;20201;-67
2022/03/16 05:36:41;;;;;;;93.60;48.42;;;8.60;99.90;;;;;;5113931;28;20308;-67
2022/03/16 05:39:08;;;;;;;93.30;49.08;;;8.80;99.90;;;;;;5114217;28;20204;-67
2022/03/16 05:41:35;;;;;;;90.47;47.35;;;8.80;99.90;;;;;;5113919;28;20205;-67
2022/03/16 05:44:02;;;;;;;88.15;45.80;;;8.90;99.90;;;;;;5113641;28;20288;-67
2022/03/16 05:46:29;;;;;;;82.20;44.05;;;9.10;99.90;;;;;;5113712;28;20235;-67
2022/03/16 05:48:56;;;;;;;92.90;47.97;;;9.20;99.90;;;;;;5113775;28;20251;-67
2022/03/16 05:51:24;;;;;;;100.35;49.22;;;9.10;99.90;;;;;;5113824;28;20201;-66
2022/03/16 05:53:51;;;;;;;95.55;49.00;;;9.00;99.90;;;;;;5113692;28;20201;-67
2022/03/16 05:56:17;;;;;;;98.55;50.05;;;8.90;99.90;;;;;;5113835;28;20221;-67
2022/03/16 05:58:44;;;;;;;93.22;48.67;;;8.80;99.90;;;;;;5113467;28;20207;-67
2022/03/16 06:01:11;;;;;;;109.75;49.47;;;8.90;99.90;;;;;;5113632;28;20593;-67
2022/03/16 06:03:38;;;;;;;91.43;48.45;;;8.80;99.90;;;;;;5113463;28;20205;-67
2022/03/16 06:06:05;;;;;;;85.80;45.90;;;8.90;99.90;;;;;;5113609;28;20227;-67
2022/03/16 06:08:33;;;;;;;91.13;47.72;;;9.00;99.90;;;;;;5113738;28;20229;-67
2022/03/16 06:11:00;;;;;;;94.20;47.80;;;9.20;99.90;;;;;;5116007;28;20290;-67
2022/03/16 06:13:27;;;;;;;85.30;44.40;;;9.20;99.90;;;;;;5117210;28;20237;-67
2022/03/16 06:15:53;;;;;;;85.85;45.03;;;9.20;99.90;;;;;;5117068;28;20711;-67
2022/03/16 06:18:20;;;;;;;89.30;45.80;;;9.20;99.90;;;;;;5117443;28;20200;-67
2022/03/16 06:20:47;;;;;;;99.53;48.45;;;9.10;99.90;;;;;;5117336;28;20223;-67
2022/03/16 06:23:14;;;;;;;92.38;46.35;;;9.00;99.90;;;;;;5117123;28;20197;-67
2022/03/16 06:25:42;;;;;;;86.07;44.95;;;9.10;99.90;;;;;;5117194;28;20201;-67
2022/03/16 06:28:09;;;;;;;87.72;45.33;;;9.20;99.90;;;;;;5116948;28;20217;-67
2022/03/16 06:30:36;;;;;;;100.28;47.28;;;9.20;99.90;;;;;;5117204;28;20212;-67
2022/03/16 06:33:03;;;;;;;93.07;47.97;;;9.20;99.90;;;;;;5116819;28;20201;-67
2022/03/16 06:35:30;;;;;;;93.60;45.15;;;9.20;99.90;;;;;;5116998;27;20258;-67
2022/03/16 06:37:57;;;;;;;90.28;44.72;;;9.30;99.90;;;;;;5117093;28;20194;-67
2022/03/16 06:40:23;;;;;;;79.20;40.83;;;9.40;99.90;;;;;;5117079;27;20630;-67
2022/03/16 06:42:53;;;;;;;78.22;41.20;;;9.40;99.90;;;;;;5117156;27;20197;-66
2022/03/16 06:45:22;;;;;;;73.72;40.47;;;9.40;99.90;;;;;;5117045;28;20197;-67
2022/03/16 06:47:48;;;;;;;73.40;40.78;;;9.50;99.90;;;;;;5116698;28;20230;-67
2022/03/16 06:50:15;;;;;;;74.53;40.70;;;9.70;99.90;;;;;;5116921;28;20300;-67
2022/03/16 06:52:42;;;;;;;74.75;41.22;;;9.70;99.90;;;;;;5116926;28;20563;-67
2022/03/16 06:55:10;;;;;;;77.03;41.20;;;9.70;99.90;;;;;;5116508;27;20292;-67
2022/03/16 06:57:37;;;;;;;87.95;42.10;;;9.60;99.90;;;;;;5116293;28;20222;-67
2022/03/16 07:00:08;;;;;;;86.68;41.72;;;9.60;99.90;;;;;;5116849;28;20197;-67
2022/03/16 07:02:49;;;;;;;77.32;40.42;;;9.60;99.90;;;;;;5116658;27;20189;-67
2022/03/16 07:05:16;;;;;;;79.75;38.55;;;9.70;99.90;;;;;;5116437;28;20209;-67
2022/03/16 07:07:43;;;;;;;73.93;39.10;;;9.70;99.90;;;;;;5116324;28;20221;-67
2022/03/16 07:10:10;;;;;;;70.65;39.65;;;9.70;99.90;;;;;;5116579;28;20306;-67
2022/03/16 07:12:37;;;;;;;63.58;36.25;;;9.70;99.90;;;;;;5116411;28;20203;-67
2022/03/16 07:15:07;;;;;;;63.78;36.00;;;9.80;99.90;;;;;;5116027;28;20292;-67
2022/03/16 07:17:34;;;;;;;67.88;35.72;;;9.80;99.90;;;;;;5115961;28;20304;-67
2022/03/16 07:20:03;;;;;;;58.90;33.63;;;9.90;99.90;;;;;;5116279;28;20208;-67
2022/03/16 07:22:30;;;;;;;58.50;34.10;;;9.90;99.90;;;;;;5114987;28;20250;-67
2022/03/16 07:24:57;;;;;;;61.63;35.50;;;9.90;99.90;;;;;;5116144;28;20201;-67
2022/03/16 07:27:25;;;;;;;61.63;35.00;;;10.00;99.90;;;;;;5115834;28;20316;-67
2022/03/16 07:29:51;;;;;;;57.20;34.40;;;9.90;99.90;;;;;;5115850;28;20213;-67
2022/03/16 07:32:19;;;;;;;59.72;33.45;;;10.00;99.90;;;;;;5115971;27;20201;-67
2022/03/16 07:34:47;;;;;;;54.42;32.47;;;9.90;99.90;;;;;;5115498;28;20574;-67
2022/03/16 07:37:13;;;;;;;52.17;30.67;;;9.90;99.90;;;;;;5115870;27;20228;-67
2022/03/16 07:39:40;;;;;;;49.60;29.45;;;9.90;99.90;;;;;;5116036;28;20201;-67
2022/03/16 07:42:07;;;;;;;50.20;30.65;;;10.00;99.90;;;;;;5115705;28;20288;-67
2022/03/16 07:44:34;;;;;;;47.80;30.25;;;9.90;99.90;;;;;;5115470;28;20197;-67
2022/03/16 07:47:02;;;;;;;50.35;30.75;;;9.80;99.90;;;;;;5115337;28;20225;-67
2022/03/16 07:49:30;;;;;;;53.30;29.98;;;9.70;99.90;;;;;;5115654;28;20293;-66
2022/03/16 07:51:57;;;;;;;54.95;31.90;;;9.60;99.90;;;;;;5115571;28;20624;-67
2022/03/16 07:54:24;;;;;;;50.00;29.58;;;9.60;99.90;;;;;;5115205;28;20201;-67
2022/03/16 07:56:51;;;;;;;50.70;29.73;;;9.60;99.90;;;;;;5115412;28;20221;-67
2022/03/16 07:59:18;;;;;;;47.80;28.40;;;9.60;99.90;;;;;;5115441;28;20204;-67
2022/03/16 08:01:44;;;;;;;46.92;28.25;;;9.50;99.90;;;;;;5115364;28;20202;-67
2022/03/16 08:04:12;;;;;;;48.30;28.17;;;9.50;99.90;;;;;;5114907;28;20237;-66
2022/03/16 08:06:40;;;;;;;46.53;29.02;;;9.50;99.90;;;;;;5115246;28;20274;-67
2022/03/16 08:09:07;;;;;;;43.63;28.83;;;9.50;99.90;;;;;;5091468;28;20237;-67
2022/03/16 08:11:33;;;;;;;45.08;29.85;;;9.50;99.90;;;;;;5088599;28;20317;-67
2022/03/16 08:14:00;;;;;;;45.75;29.52;;;9.30;99.90;;;;;;5093614;28;20302;-67
2022/03/16 08:16:27;;;;;;;44.95;28.75;;;9.20;99.90;;;;;;5093523;28;20226;-68
2022/03/16 08:18:54;;;;;;;50.28;29.90;;;9.20;99.90;;;;;;5094045;28;20194;-67
2022/03/16 08:21:21;;;;;;;44.58;28.35;;;9.20;99.90;;;;;;5093486;28;20579;-67
2022/03/16 08:23:49;;;;;;;42.08;26.95;;;9.40;99.90;;;;;;5093494;28;20214;-66
2022/03/16 08:26:16;;;;;;;42.38;27.10;;;9.50;99.90;;;;;;5093363;28;20245;-66
2022/03/16 08:28:43;;;;;;;41.45;28.30;;;9.70;99.90;;;;;;5093629;28;20243;-65
2022/03/16 08:31:11;;;;;;;45.47;28.17;;;9.80;99.90;;;;;;5093238;28;20206;-66
2022/03/16 08:33:38;;;;;;;41.80;26.42;;;9.90;99.90;;;;;;5092643;28;20725;-65
2022/03/16 08:36:07;;;;;;;41.25;26.63;;;10.00;99.90;;;;;;5093664;28;20228;-65
2022/03/16 08:38:36;;;;;;;41.22;27.70;;;10.00;99.90;;;;;;5093370;28;20198;-66
2022/03/16 08:41:05;;;;;;;38.65;26.60;;;10.00;99.90;;;;;;5093622;28;20296;-66
2022/03/16 08:43:32;;;;;;;43.08;28.17;;;10.10;99.90;;;;;;5093419;28;20210;-66
2022/03/16 08:45:59;;;;;;;40.88;26.92;;;10.10;99.90;;;;;;5093550;28;20225;-66
2022/03/16 08:48:26;;;;;;;43.83;27.20;;;10.20;99.90;;;;;;5093468;28;20221;-66
2022/03/16 08:50:53;;;;;;;45.10;26.90;;;10.20;99.90;;;;;;5093454;28;20537;-67
2022/03/16 08:53:20;;;;;;;41.80;25.45;;;10.30;99.90;;;;;;5092708;28;20202;-67
2022/03/16 08:55:47;;;;;;;40.13;26.48;;;10.40;99.90;;;;;;5092927;28;20240;-67
2022/03/16 08:58:15;;;;;;;40.20;26.38;;;10.30;99.90;;;;;;5092827;28;20202;-67
2022/03/16 09:00:42;;;;;;;36.88;25.60;;;10.40;99.90;;;;;;5093095;28;20293;-66
2022/03/16 09:03:10;;;;;;;38.67;25.88;;;10.40;99.90;;;;;;5092977;28;20220;-67
2022/03/16 09:05:37;;;;;;;38.33;24.63;;;10.40;99.90;;;;;;5093028;28;20557;-67
2022/03/16 09:08:04;;;;;;;36.78;25.38;;;10.50;99.90;;;;;;5092809;28;20218;-67
2022/03/16 09:10:31;;;;;;;37.72;25.70;;;10.50;99.90;;;;;;5092698;28;20202;-67
2022/03/16 09:12:58;;;;;;;40.47;26.15;;;10.60;99.90;;;;;;5092791;28;20570;-68
2022/03/16 09:15:27;;;;;;;36.20;24.40;;;10.60;99.90;;;;;;5093756;28;20202;-66
2022/03/16 09:17:53;;;;;;;34.92;24.38;;;10.70;99.90;;;;;;5094019;28;20746;-71
2022/03/16 09:20:20;;;;;;;38.60;25.90;;;10.70;99.90;;;;;;5094379;28;20222;-66
2022/03/16 09:22:47;;;;;;;35.28;24.10;;;10.70;99.90;;;;;;5094247;28;20208;-66
2022/03/16 09:25:14;;;;;;;34.28;24.13;;;10.90;99.90;;;;;;5094112;28;20289;-66
2022/03/16 09:27:41;;;;;;;39.28;25.55;;;11.00;99.90;;;;;;5094187;28;20232;-66
2022/03/16 09:30:09;;;;;;;37.15;25.55;;;11.00;99.90;;;;;;5094111;28;20682;-66
2022/03/16 09:32:39;;;;;;;33.38;23.50;;;11.00;99.90;;;;;;5094568;28;20198;-66
2022/03/16 09:35:06;;;;;;;37.15;23.95;;;11.00;99.90;;;;;;5094225;28;20293;-66
2022/03/16 09:37:34;;;;;;;36.03;25.52;;;11.00;99.90;;;;;;5094070;28;20221;-66
2022/03/16 09:40:02;;;;;;;36.78;24.70;;;11.00;99.90;;;;;;5094283;28;20296;-66
2022/03/16 09:42:30;;;;;;;37.40;25.13;;;11.10;99.90;;;;;;5094363;28;20210;-66
2022/03/16 09:45:00;;;;;;;34.92;23.55;;;11.10;99.90;;;;;;5094995;28;20202;-66
2022/03/16 09:47:28;;;;;;;37.78;25.58;;;11.20;99.90;;;;;;5099222;28;20228;-66
2022/03/16 09:49:56;;;;;;;36.00;24.02;;;11.20;99.90;;;;;;5098230;28;20209;-66
2022/03/16 09:52:26;;;;;;;36.45;24.13;;;11.30;99.90;;;;;;5098278;28;20198;-66
2022/03/16 09:54:53;;;;;;;36.70;24.85;;;11.40;99.90;;;;;;5098090;28;20202;-66
2022/03/16 09:57:20;;;;;;;38.97;23.80;;;11.40;99.90;;;;;;5097520;28;20222;-66
2022/03/16 09:59:47;;;;;;;33.10;24.20;;;11.30;99.90;;;;;;5097403;28;20213;-66
2022/03/16 10:02:17;;;;;;;33.92;22.63;;;11.30;99.90;;;;;;5097342;28;20209;-66
2022/03/16 10:04:47;;;;;;;35.65;22.85;;;11.40;99.90;;;;;;5097325;28;20629;-66
2022/03/16 10:07:16;;;;;;;32.00;22.80;;;11.40;99.90;;;;;;5097393;28;20226;-66
2022/03/16 10:15:14;;;;;;;30.67;21.92;;;11.70;99.90;;;;;;5097063;28;20233;-66
2022/03/16 10:17:44;;;;;;;34.13;22.73;;;11.80;99.90;;;;;;5097152;28;20228;-66
2022/03/16 10:20:12;;;;;;;29.90;22.05;;;11.90;99.90;;;;;;5097033;28;20202;-66
2022/03/16 10:22:43;;;;;;;31.58;22.42;;;12.00;99.90;;;;;;5096806;28;20209;-66
2022/03/16 10:25:10;;;;;;;33.25;21.20;;;12.10;99.90;;;;;;5096765;28;20198;-65
2022/03/16 10:27:38;;;;;;;26.67;19.90;;;12.40;99.90;;;;;;5096560;28;20308;-66
2022/03/16 10:30:07;;;;;;;27.60;20.05;;;12.50;99.90;;;;;;5096999;28;20206;-66
2022/03/16 10:32:34;;;;;;;29.20;21.45;;;12.80;99.90;;;;;;5096775;28;20231;-66
2022/03/16 10:35:05;;;;;;;27.60;19.27;;;12.90;99.90;;;;;;5096893;28;20198;-66
2022/03/16 10:37:33;;;;;;;29.35;20.15;;;12.80;99.90;;;;;;5096928;28;20222;-66
2022/03/16 10:40:02;;;;;;;26.40;20.17;;;13.00;99.90;;;;;;5096745;28;20234;-66
2022/03/16 10:48:14;;;;;;;25.60;19.35;;;13.30;99.90;;;;;;5096424;28;20213;-66
2022/03/16 10:50:42;;;;;;;28.33;20.42;;;13.30;99.90;;;;;;5096511;28;20210;-66
2022/03/16 10:53:10;;;;;;;27.40;20.85;;;13.30;99.90;;;;;;5096959;28;20213;-66
2022/03/16 10:55:39;;;;;;;26.77;21.60;;;13.50;99.90;;;;;;5096112;28;20301;-66
2022/03/16 10:58:08;;;;;;;25.40;19.55;;;13.70;99.90;;;;;;5096208;28;20695;-66
2022/03/16 11:00:36;;;;;;;24.02;19.23;;;13.90;99.90;;;;;;5096349;28;20679;-66
2022/03/16 11:03:07;;;;;;;25.50;20.30;;;14.10;99.90;;;;;;5096172;28;20210;-66
2022/03/16 11:05:37;;;;;;;22.45;18.27;;;14.40;99.90;;;;;;5096193;28;20195;-66
2022/03/16 11:08:06;;;;;;;22.95;19.58;;;14.70;99.90;;;;;;5096239;28;20223;-66
2022/03/16 11:10:35;;;;;;;22.33;18.80;;;15.00;99.90;;;;;;5096416;28;20299;-66
2022/03/16 11:15:50;;;;;;;25.77;19.20;;;15.30;99.90;;;;;;5096266;28;20212;-66
2022/03/16 11:18:18;;;;;;;22.08;17.58;;;15.60;99.90;;;;;;5095911;28;20205;-66
2022/03/16 11:20:47;;;;;;;23.17;19.35;;;16.10;99.90;;;;;;5095747;28;20198;-66
2022/03/16 11:26:15;;;;;;;22.23;18.95;;;16.30;99.90;;;;;;5095677;28;20733;-66
2022/03/16 11:29:05;;;;;;;20.90;18.65;;;16.50;99.90;;;;;;5095414;28;20632;-66
2022/03/16 11:31:34;;;;;;;22.23;18.17;;;16.70;99.90;;;;;;5095442;28;20686;-66
2022/03/16 11:34:03;;;;;;;22.55;19.02;;;17.00;99.10;;;;;;5095275;28;20706;-66
2022/03/16 11:36:32;;;;;;;23.58;18.50;;;16.80;98.40;;;;;;5095397;28;20218;-66
2022/03/16 11:39:02;;;;;;;22.42;19.27;;;16.70;98.20;;;;;;5095521;28;20206;-66
2022/03/16 11:41:30;;;;;;;23.80;19.63;;;16.50;98.80;;;;;;5095461;28;20221;-66
2022/03/16 11:44:29;;;;;;;20.88;18.55;;;16.40;98.60;;;;;;5095080;28;20213;-66
2022/03/16 11:47:17;;;;;;;23.38;18.13;;;16.40;99.00;;;;;;5095203;28;20233;-66
2022/03/16 11:50:03;;;;;;;22.80;18.65;;;16.30;99.00;;;;;;5094997;28;20221;-66
2022/03/16 11:53:00;;;;;;;23.95;19.88;;;16.10;99.10;;;;;;5096152;28;20193;-66
2022/03/16 11:55:53;;;;;;;23.50;18.88;;;15.90;99.90;;;;;;5095067;28;20194;-66
2022/03/16 11:58:31;;;;;;;24.73;19.48;;;15.80;99.90;;;;;;5059048;28;20203;-66
2022/03/16 12:01:26;;;;;;;24.80;19.98;;;15.60;99.90;;;;;;5095191;28;20184;-66
2022/03/16 12:03:59;;;;;;;24.38;19.38;;;15.50;99.90;;;;;;5095120;28;20205;-66
2022/03/16 12:06:30;;;;;;;22.40;18.63;;;15.80;99.90;;;;;;5095079;28;20221;-66
2022/03/16 12:09:03;;;;;;;24.38;18.30;;;15.90;99.90;;;;;;5094002;28;20709;-66
2022/03/16 12:15:09;;;;;;;24.85;19.08;;;15.70;99.90;;;;;;5094828;28;20220;-66
2022/03/16 12:17:38;;;;;;;26.15;18.40;;;15.60;99.90;;;;;;5094882;28;20590;-66
2022/03/16 12:20:15;;;;;;;24.23;19.65;;;15.20;99.50;;;;;;5094771;28;20200;-66
2022/03/16 12:22:45;;;;;;;21.00;17.88;;;15.10;99.90;;;;;;5095086;28;20193;-66
2022/03/16 12:25:33;;;;;;;22.27;18.63;;;15.00;99.90;;;;;;5094360;28;20669;-66
2022/03/16 12:30:48;;;;;;;21.48;16.70;;;14.60;99.90;;;;;;5094821;28;20245;-66
2022/03/16 12:33:19;;;;;;;22.35;18.02;;;14.60;99.90;;;;;;5094528;28;20294;-66
2022/03/16 12:35:47;;;;;;;26.30;19.52;;;14.50;99.90;;;;;;5094575;28;20525;-66
2022/03/16 12:38:14;;;;;;;23.75;19.23;;;14.40;99.90;;;;;;5094509;28;20583;-66
2022/03/16 12:42:31;;;;;;;26.98;19.15;;;14.40;99.90;;;;;;5094511;28;20547;-66
2022/03/16 12:43:30;;;;;;;22.63;18.23;;;14.40;99.90;;;;;;5094103;28;20203;-66
2022/03/16 12:46:03;;;;;;;21.60;18.33;;;14.40;99.90;;;;;;5094468;28;20306;-66
2022/03/16 12:48:34;;;;;;;21.90;18.85;;;14.40;99.90;;;;;;5094318;28;20212;-66
2022/03/16 12:51:01;;;;;;;22.65;17.63;;;14.30;99.90;;;;;;5094641;28;20665;-66
2022/03/16 12:53:44;;;;;;;24.52;17.75;;;14.40;99.90;;;;;;5094796;28;20208;-66
2022/03/16 12:56:13;;;;;;;21.52;18.23;;;14.30;99.90;;;;;;5093999;28;20704;-66
2022/03/16 12:58:41;;;;;;;20.73;17.50;;;14.40;99.90;;;;;;5094243;28;20210;-66
2022/03/16 13:01:16;;;;;;;20.98;17.65;;;14.30;99.90;;;;;;5093899;28;20208;-66
2022/03/16 13:03:45;;;;;;;19.63;16.50;;;14.40;99.90;;;;;;5093825;28;20214;-65